Time;durP1;ratioP1;P1;durP2;ratioP2;P2;SDS_P1;SDS_P2;PMS_P1;PMS_P2;Temp;Humidity;BMP_temperature;BMP_pressure;BME280_temperature;BME280_humidity;BME280_pressure;Samples;Min_cycle;Max_cycle;Signal;HPM_P1;HPM_P2
2021/01/29 00:02:06;;;;;;;5.08;2.75;;;;;;;18.88;64.82;156088.13;1714937;82;21201;-74
2021/01/29 00:04:44;;;;;;;3.87;2.60;;;;;;;25.08;100.00;157740.78;1667228;86;21338;-73
2021/01/29 00:07:16;;;;;;;4.28;3.17;;;;;;;23.68;73.97;157365.25;1721415;82;21168;-74
2021/01/29 00:09:48;;;;;;;5.70;2.98;;;;;;;21.81;63.33;156868.39;1732365;82;21171;-73
2021/01/29 00:12:22;;;;;;;6.05;3.08;;;;;;;20.93;81.30;132449.98;1745160;81;21173;-73
2021/01/29 00:14:54;;;;;;;14.30;8.20;;;;;;;20.27;93.34;155736.50;1722760;82;21360;-74
2021/01/29 00:17:27;;;;;;;5.50;3.37;;;;;;;20.93;85.33;148770.22;1732757;82;21697;-74
2021/01/29 00:19:59;;;;;;;5.37;2.77;;;;;;;20.85;67.72;140700.50;1736667;82;21520;-75
2021/01/29 00:22:31;;;;;;;6.58;3.40;;;;;;;19.64;67.15;131646.31;1745156;82;21174;-74
2021/01/29 00:25:08;;;;;;;6.08;3.00;;;;;;;22.44;91.97;154229.50;1744189;82;21660;-73
2021/01/29 00:27:40;;;;;;;8.25;3.75;;;;;;;18.11;100.00;154806.31;1721279;82;21261;-73
2021/01/29 00:30:14;;;;;;;5.10;2.98;;;;;;;19.85;83.65;89207.13;1734508;82;21217;-74
2021/01/29 00:32:47;;;;;;;4.58;2.90;;;;;;;19.41;85.64;131128.30;1745221;81;22329;-73
2021/01/29 00:35:21;;;;;;;5.28;3.85;;;;;;;19.71;89.85;108134.91;1744710;82;21200;-73
2021/01/29 00:37:54;;;;;;;5.20;3.12;;;;;;;19.46;79.00;74971.10;1745600;82;21228;-73
2021/01/29 00:40:27;;;;;;;4.67;3.55;;;;;;;19.59;79.62;96264.11;1715326;82;21186;-74
2021/01/29 00:43:00;;;;;;;4.17;3.35;;;;;;;19.41;80.29;105783.32;1744929;81;21248;-75
2021/01/29 00:45:35;;;;;;;4.67;3.10;;;;;;;19.20;68.49;122367.24;1746147;81;21212;-73
2021/01/29 00:48:08;;;;;;;4.22;2.80;;;;;;;19.60;53.85;156279.75;1746121;82;21185;-72
2021/01/29 00:50:41;;;;;;;5.17;3.12;;;;;;;19.34;54.07;156212.33;1738965;82;21869;-74
2021/01/29 00:53:14;;;;;;;4.35;3.00;;;;;;;19.70;51.51;156306.17;1736798;82;21747;-73
2021/01/29 00:55:47;;;;;;;5.97;3.37;;;;;;;20.58;50.50;156541.50;1745592;82;21244;-73
2021/01/29 00:58:21;;;;;;;4.65;2.80;;;;;;;19.74;53.03;156318.06;1726583;82;21221;-73
2021/01/29 01:00:54;;;;;;;7.10;3.65;;;;;;;18.31;70.27;105789.06;1743105;82;21212;-73
2021/01/29 01:03:29;;;;;;;6.40;3.45;;;;;;;19.26;72.78;88413.19;1725101;82;21182;-73
2021/01/29 01:06:01;;;;;;;7.50;3.20;;;;;;;18.97;77.50;95138.48;1712863;82;21269;-73
2021/01/29 01:08:35;;;;;;;4.47;2.80;;;;;;;18.74;75.41;63666.20;1662914;86;21712;-73
2021/01/29 01:11:12;;;;;;;5.12;2.70;;;;;;;19.60;52.29;156279.75;1724547;82;21746;-74
2021/01/29 01:13:52;;;;;;;4.77;3.20;;;;;;;19.79;50.42;156331.23;1722639;83;21180;-73
2021/01/29 01:16:42;;;;;;;3.87;2.53;;;;;;;19.62;49.57;156284.98;1715806;82;21213;-72
2021/01/29 01:19:17;;;;;;;6.05;3.40;;;;;;;19.60;49.19;156281.05;1721924;82;21244;-73
2021/01/29 01:21:51;;;;;;;4.58;2.58;;;;;;;19.47;48.96;156245.39;1745480;82;21189;-73
2021/01/29 01:24:25;;;;;;;4.00;3.05;;;;;;;19.34;48.88;156212.33;1742816;82;21268;-72
2021/01/29 01:26:57;;;;;;;5.20;2.90;;;;;;;19.27;48.66;156192.50;1746091;81;21217;-75
2021/01/29 01:29:46;;;;;;;4.70;2.72;;;;;;;18.93;49.16;156102.66;1734913;82;21875;-73
2021/01/29 01:32:18;;;;;;;4.25;2.58;;;;;;;18.80;48.95;156067.02;1743079;82;21316;-73
2021/01/29 01:34:56;;;;;;;3.10;2.60;;;;;;;18.79;48.96;156065.72;1739935;82;21388;-73
2021/01/29 01:37:29;;;;;;;6.30;3.55;;;;;;;18.80;48.89;156067.02;1691419;85;21848;-73
2021/01/29 01:40:05;;;;;;;5.35;3.20;;;;;;;18.66;49.54;156031.39;1673981;84;21197;-73
2021/01/29 01:42:37;;;;;;;4.10;2.80;;;;;;;18.71;49.14;156043.27;1681215;84;21196;-73
2021/01/29 01:45:33;;;;;;;4.22;2.58;;;;;;;19.09;48.66;156144.94;1691491;85;21323;-73
2021/01/29 01:48:11;;;;;;;4.30;2.77;;;;;;;18.86;48.51;156084.19;1645815;84;21237;-73
2021/01/29 01:51:00;;;;;;;2.72;2.12;;;;;;;18.89;48.43;156090.78;1662030;86;21249;-74
2021/01/29 01:53:45;;;;;;;4.90;2.55;;;;;;;18.96;47.92;156109.30;1680944;84;21687;-73
2021/01/29 01:56:39;;;;;;;4.90;2.58;;;;;;;18.85;47.84;156081.55;1715893;83;21367;-75
2021/01/29 01:59:39;;;;;;;4.28;2.58;;;;;;;18.75;47.77;156055.14;1720645;83;21386;-73
2021/01/29 02:02:19;;;;;;;5.58;3.00;;;;;;;18.78;47.84;156061.72;1717599;83;21324;-73
2021/01/29 02:05:09;;;;;;;4.37;2.33;;;;;;;18.81;47.49;156070.97;1680506;84;21721;-73
2021/01/29 02:07:51;;;;;;;;;;;;;;;18.63;47.56;156023.45;1690119;85;21388;-75
2021/01/29 02:10:41;;;;;;;3.87;2.25;;;;;;;18.57;47.96;156007.64;1692113;84;20191;-74
2021/01/29 02:13:16;;;;;;;4.10;2.62;;;;;;;18.29;47.84;155933.69;1698624;84;21262;-74
2021/01/29 02:15:57;;;;;;;5.10;3.45;;;;;;;18.09;49.15;155878.22;1698027;83;21427;-74
2021/01/29 02:19:07;;;;;;;4.45;2.80;;;;;;;17.99;49.16;155851.84;1694257;84;21198;-74
2021/01/29 02:22:16;;;;;;;5.45;2.98;;;;;;;17.88;48.37;155824.11;1685826;84;21380;-76
2021/01/29 02:25:10;;;;;;;3.00;2.10;;;;;;;17.57;48.44;155741.00;1672487;84;21247;-72
2021/01/29 02:27:54;;;;;;;3.55;2.12;;;;;;;17.60;48.42;155750.22;1687636;84;21915;-75
2021/01/29 02:30:55;;;;;;;2.93;2.27;;;;;;;17.72;48.03;155781.87;1697256;84;21210;-73
2021/01/29 02:34:10;;;;;;;3.90;2.85;;;;;;;17.61;47.96;155751.56;1698567;84;21774;-74
2021/01/29 02:37:10;;;;;;;5.05;2.98;;;;;;;17.51;48.03;155726.48;1676603;84;21418;-74
2021/01/29 02:40:00;;;;;;;3.75;3.33;;;;;;;17.42;47.99;155702.77;1684454;84;21159;-74
2021/01/29 02:43:01;;;;;;;3.42;2.10;;;;;;;17.34;47.95;155680.33;1664378;84;21201;-74
2021/01/29 02:46:04;;;;;;;3.47;1.98;;;;;;;17.36;47.82;155685.62;1695364;84;21289;-74
2021/01/29 02:49:10;;;;;;;4.55;2.10;;;;;;;17.39;47.55;155694.84;1699653;84;21375;-73
2021/01/29 02:52:00;;;;;;;2.80;2.30;;;;;;;17.37;47.42;155689.55;1675360;84;21399;-75
2021/01/29 02:54:54;;;;;;;2.90;1.90;;;;;;;17.30;47.28;155671.11;1667546;86;21800;-76
2021/01/29 02:57:54;;;;;;;5.05;2.08;;;;;;;17.14;47.28;155627.55;1678852;84;21199;-74
2021/01/29 03:01:12;;;;;;;4.25;2.40;;;;;;;17.24;46.89;155653.91;1673871;84;21352;-74
2021/01/29 03:03:51;;;;;;;3.00;1.80;;;;;;;17.07;46.69;155607.77;1676547;84;21202;-74
2021/01/29 03:06:54;;;;;;;4.47;2.22;;;;;;;16.81;47.53;155539.20;1648497;84;21756;-74
2021/01/29 03:09:59;;;;;;;3.58;3.10;;;;;;;16.86;46.54;155552.41;1687098;84;21177;-73
2021/01/29 03:12:54;;;;;;;1.57;1.40;;;;;;;16.76;46.43;155526.06;1690037;84;21760;-74
2021/01/29 03:15:51;;;;;;;2.70;2.05;;;;;;;16.64;46.28;155495.72;1691489;83;21213;-74
2021/01/29 03:19:21;;;;;;;4.22;2.30;;;;;;;16.57;46.08;155477.28;1678393;84;21367;-74
2021/01/29 03:22:16;;;;;;;2.92;2.15;;;;;;;16.39;46.16;155428.52;1693170;84;21398;-74
2021/01/29 03:25:23;;;;;;;4.37;1.95;;;;;;;16.19;46.08;155374.44;1678031;84;22407;-75
2021/01/29 03:28:18;;;;;;;2.80;1.90;;;;;;;16.15;45.89;155365.22;1686702;85;21285;-75
2021/01/29 03:30:53;;;;;;;3.52;2.10;;;;;;;16.10;45.79;155352.03;1642953;84;21332;-76
2021/01/29 03:33:44;;;;;;;3.12;1.90;;;;;;;15.95;45.91;155311.20;1695905;84;21870;-75
2021/01/29 03:36:40;;;;;;;7.28;2.20;;;;;;;15.89;45.87;155295.42;1662849;85;21446;-76
2021/01/29 03:39:38;;;;;;;3.02;2.17;;;;;;;15.89;45.77;155295.42;1652181;86;21203;-76
2021/01/29 03:42:58;;;;;;;4.75;2.35;;;;;;;15.87;45.85;155291.44;1662196;84;21281;-76
2021/01/29 03:46:08;;;;;;;3.50;2.05;;;;;;;16.10;45.57;155352.03;1695030;82;21234;-75
2021/01/29 03:49:15;;;;;;;3.40;1.82;;;;;;;16.38;44.85;155425.87;1739325;82;21208;-77
2021/01/29 03:52:23;;;;;;;3.05;1.90;;;;;;;16.29;44.71;155403.42;1706592;82;21672;-76
2021/01/29 03:55:28;;;;;;;2.83;1.70;;;;;;;15.77;46.03;155263.81;1668377;84;21812;-76
2021/01/29 03:58:40;;;;;;;2.92;1.98;;;;;;;15.82;45.39;155278.31;1738382;81;21315;-75
2021/01/29 04:02:00;;;;;;;3.85;2.52;;;;;;;15.97;46.40;155317.78;1724035;82;21194;-75
2021/01/29 04:05:16;;;;;;;6.53;2.05;;;;;;;15.91;45.43;155302.00;1720634;82;21241;-76
2021/01/29 04:08:14;;;;;;;3.40;1.98;;;;;;;15.82;45.80;155276.95;1666979;86;21389;-76
2021/01/29 04:10:49;;;;;;;2.92;1.75;;;;;;;16.15;45.58;155365.22;1651468;83;21180;-70
2021/01/29 04:13:39;;;;;;;2.45;1.65;;;;;;;16.21;45.24;155381.02;1724574;82;21330;-76
2021/01/29 04:16:22;;;;;;;3.00;1.90;;;;;;;16.03;45.36;155332.31;1730546;82;21197;-75
2021/01/29 04:18:56;;;;;;;3.27;2.20;;;;;;;15.95;45.30;155312.56;1738861;82;21356;-75
2021/01/29 04:21:42;;;;;;;3.80;2.00;;;;;;;16.04;44.91;155336.25;1739498;82;21177;-75
2021/01/29 04:24:23;;;;;;;2.60;1.90;;;;;;;15.96;45.26;155313.84;1715603;82;21236;-75
2021/01/29 04:27:00;;;;;;;3.02;2.17;;;;;;;15.92;44.70;155303.28;1723596;82;21205;-76
2021/01/29 04:29:43;;;;;;;4.70;2.00;;;;;;;15.76;44.65;155261.19;1721764;82;21193;-75
2021/01/29 04:32:19;;;;;;;2.75;2.20;;;;;;;15.73;45.06;155253.27;1731269;82;21281;-75
2021/01/29 04:34:57;;;;;;;3.40;2.35;;;;;;;15.55;44.66;155207.17;1731571;82;21735;-76
2021/01/29 04:37:32;;;;;;;3.35;2.27;;;;;;;15.47;44.57;155184.78;1724978;81;21194;-79
2021/01/29 04:40:34;;;;;;;4.70;2.37;;;;;;;15.44;44.79;155178.22;1737036;82;21248;-75
2021/01/29 04:43:32;;;;;;;3.98;2.20;;;;;;;15.35;44.50;155151.89;1709252;80;21228;-71
2021/01/29 04:46:25;;;;;;;4.20;3.27;;;;;;;15.29;44.57;155137.41;1720185;82;21193;-74
2021/01/29 04:49:25;;;;;;;4.25;2.70;;;;;;;15.32;44.36;155143.97;1695346;83;21202;-75
2021/01/29 04:52:40;;;;;;;4.25;3.05;;;;;;;15.32;44.22;155145.33;1606199;88;22084;-75
2021/01/29 04:55:48;;;;;;;4.33;2.80;;;;;;;15.00;44.40;155059.70;1621641;87;21267;-78
2021/01/29 04:58:28;;;;;;;5.37;3.30;;;;;;;14.90;45.10;155034.69;1682734;82;21391;-75
2021/01/29 05:01:45;;;;;;;6.17;3.85;;;;;;;14.74;44.45;154991.27;1654523;82;21233;-72
2021/01/29 05:04:46;;;;;;;8.18;4.10;;;;;;;14.56;44.58;154943.92;1685806;82;21233;-69
2021/01/29 05:08:07;;;;;;;7.30;4.30;;;;;;;14.32;44.95;154880.78;1692876;82;21241;-75
2021/01/29 05:11:03;;;;;;;8.93;4.67;;;;;;;14.55;44.67;154942.59;1667928;84;21444;-74
2021/01/29 05:14:19;;;;;;;9.60;4.97;;;;;;;14.63;44.71;154962.31;1732495;81;21412;-73
2021/01/29 05:17:14;;;;;;;8.45;4.72;;;;;;;14.75;45.22;154993.91;1723334;82;21350;-72
2021/01/29 05:19:55;;;;;;;8.50;5.05;;;;;;;14.84;44.68;155018.91;1720470;82;21359;-74
2021/01/29 05:22:42;;;;;;;8.63;5.62;;;;;;;14.73;44.89;154989.97;1719568;80;21336;-73
2021/01/29 05:25:29;;;;;;;7.55;4.83;;;;;;;14.84;45.10;155018.91;1726145;80;21235;-74
2021/01/29 05:28:33;;;;;;;8.98;5.17;;;;;;;15.19;44.89;155111.03;1723448;80;21387;-74
2021/01/29 05:31:31;;;;;;;10.53;4.62;;;;;;;15.20;44.90;155113.69;1720628;82;21218;-75
2021/01/29 05:34:44;;;;;;;8.73;5.30;;;;;;;15.29;45.08;155137.41;1721901;80;21347;-74
2021/01/29 05:37:40;;;;;;;10.18;6.00;;;;;;;15.40;45.00;155166.38;1722790;82;21378;-83
2021/01/29 05:40:42;;;;;;;12.07;5.10;;;;;;;15.45;44.84;155180.84;1698947;82;21306;-74
2021/01/29 05:43:52;;;;;;;10.68;6.60;;;;;;;15.51;44.78;155196.63;1707637;82;21328;-74
2021/01/29 05:46:26;;;;;;;;;;;;;;;15.53;44.91;155200.61;1732020;80;21342;-76
2021/01/29 05:49:29;;;;;;;11.08;7.03;;;;;;;15.76;44.74;155262.47;1696728;83;20344;-76
2021/01/29 05:52:36;;;;;;;10.43;6.35;;;;;;;15.72;45.03;155250.63;1697497;83;21261;-75
2021/01/29 05:55:26;;;;;;;13.25;7.75;;;;;;;15.84;45.14;155283.58;1696756;82;21269;-76
2021/01/29 05:58:41;;;;;;;12.00;7.03;;;;;;;15.66;45.46;155234.84;1676413;85;21478;-77
2021/01/29 06:01:33;;;;;;;11.18;6.90;;;;;;;15.48;45.59;155187.42;1689712;83;21225;-71
2021/01/29 06:04:32;;;;;;;11.65;6.85;;;;;;;15.68;46.60;155241.42;1702257;83;21352;-73
2021/01/29 06:07:31;;;;;;;10.75;6.87;;;;;;;15.71;46.08;155249.33;1715577;82;21378;-73
2021/01/29 06:10:42;;;;;;;14.28;8.68;;;;;;;15.67;45.49;155238.78;1718468;83;21249;-74
2021/01/29 06:13:31;;;;;;;12.18;7.03;;;;;;;15.55;45.68;155205.88;1690928;85;21395;-74
2021/01/29 06:16:32;;;;;;;14.65;8.15;;;;;;;15.43;45.71;155174.28;1671778;84;21276;-73
2021/01/29 06:19:28;;;;;;;14.38;7.17;;;;;;;15.44;45.62;155178.22;1675472;84;21314;-72
2021/01/29 06:22:28;;;;;;;15.93;8.80;;;;;;;15.41;45.54;155170.30;1673655;86;21248;-72
2021/01/29 06:25:42;;;;;;;15.30;7.92;;;;;;;15.35;45.33;155153.19;1674714;86;21204;-72
2021/01/29 06:28:31;;;;;;;14.05;7.28;;;;;;;15.22;45.67;155118.91;1674337;86;21351;-71
2021/01/29 06:31:40;;;;;;;13.60;8.88;;;;;;;15.06;45.95;155076.81;1674883;85;21249;-72
2021/01/29 06:34:30;;;;;;;16.15;8.38;;;;;;;15.28;45.58;155134.78;1646503;87;21278;-72
2021/01/29 06:37:18;;;;;;;19.37;10.72;;;;;;;15.34;45.49;155150.55;1673863;85;21336;-72
2021/01/29 06:40:09;;;;;;;17.82;10.50;;;;;;;15.42;45.31;155171.66;1668632;84;21820;-72
2021/01/29 06:43:17;;;;;;;17.62;9.63;;;;;;;15.61;45.08;155223.00;1712842;82;21202;-73
2021/01/29 06:46:27;;;;;;;20.10;9.68;;;;;;;15.74;45.07;155257.19;1714115;82;21269;-73
2021/01/29 06:49:19;;;;;;;17.90;8.90;;;;;;;15.62;44.97;155225.59;1712693;84;21255;-72
2021/01/29 06:52:24;;;;;;;20.55;9.73;;;;;;;15.45;45.28;155180.84;1712779;82;21233;-73
2021/01/29 06:55:13;;;;;;;16.77;9.58;;;;;;;15.55;45.27;155207.17;1688003;82;21339;-72
2021/01/29 06:58:15;;;;;;;17.00;9.28;;;;;;;15.53;45.34;155200.61;1745839;82;21366;-73
2021/01/29 07:01:04;;;;;;;19.00;9.33;;;;;;;15.52;45.52;155199.27;1745881;82;21711;-72
2021/01/29 07:04:08;;;;;;;20.72;10.55;;;;;;;15.69;45.39;155244.06;1745886;82;21181;-72
2021/01/29 07:07:03;;;;;;;16.17;9.30;;;;;;;15.79;45.47;155270.39;1708457;82;21199;-72
2021/01/29 07:10:26;;;;;;;20.50;10.50;;;;;;;15.56;45.98;155209.81;1717294;82;21363;-73
2021/01/29 07:13:25;;;;;;;20.80;10.68;;;;;;;15.49;46.34;155191.41;1724347;82;21248;-72
2021/01/29 07:16:14;;;;;;;20.48;10.45;;;;;;;15.42;46.39;155171.66;1725330;81;21429;-71
2021/01/29 07:18:57;;;;;;;20.68;10.18;;;;;;;15.46;46.56;155182.14;1739215;82;21344;-72
2021/01/29 07:21:49;;;;;;;19.52;10.88;;;;;;;15.48;46.61;155187.42;1745922;82;21161;-72
2021/01/29 07:25:00;;;;;;;18.37;10.82;;;;;;;15.53;46.58;155201.91;1744569;82;21186;-71
2021/01/29 07:28:12;;;;;;;18.70;9.95;;;;;;;15.43;46.64;155175.58;1723119;82;21717;-72
2021/01/29 07:31:15;;;;;;;17.85;8.73;;;;;;;15.40;46.85;155167.66;1716336;83;21921;-72
2021/01/29 07:33:55;;;;;;;18.75;10.00;;;;;;;15.42;46.89;155172.94;1730393;82;21213;-71
2021/01/29 07:36:54;;;;;;;17.15;9.58;;;;;;;15.56;47.01;155208.52;1745534;82;21259;-72
2021/01/29 07:39:58;;;;;;;19.12;9.75;;;;;;;15.69;46.90;155244.06;1732371;82;21704;-73
2021/01/29 07:42:53;;;;;;;20.57;10.10;;;;;;;15.70;47.10;155246.69;1745997;82;21288;-72
2021/01/29 07:45:47;;;;;;;20.88;9.60;;;;;;;15.70;47.04;155245.34;1716318;83;21367;-73
2021/01/29 07:48:57;;;;;;;18.60;12.05;;;;;;;15.88;47.03;155294.08;1740389;82;21233;-72
2021/01/29 07:51:41;;;;;;;17.17;9.30;;;;;;;16.01;46.65;155327.03;1746407;82;21224;-72
2021/01/29 07:54:30;;;;;;;30.52;10.75;;;;;;;15.90;46.79;155298.06;1743093;82;21747;-71
2021/01/29 07:57:10;;;;;;;19.55;10.88;;;;;;;16.01;46.75;155328.33;1723646;82;21174;-72
2021/01/29 08:00:20;;;;;;;20.60;10.00;;;;;;;16.12;46.70;155356.02;1712862;82;21206;-72
2021/01/29 08:03:19;;;;;;;18.80;10.48;;;;;;;16.10;46.77;155352.03;1743787;81;21436;-74
2021/01/29 08:06:25;;;;;;;18.92;10.40;;;;;;;16.16;46.85;155366.52;1743743;82;21313;-72
2021/01/29 08:09:05;;;;;;;18.92;10.20;;;;;;;16.24;46.78;155388.94;1715920;83;21312;-72
2021/01/29 08:11:41;;;;;;;22.48;11.73;;;;;;;16.21;46.93;155381.02;1716367;83;21858;-72
2021/01/29 08:14:57;;;;;;;19.37;11.00;;;;;;;16.19;46.92;155374.44;1716402;83;21331;-73
2021/01/29 08:17:52;;;;;;;17.75;10.05;;;;;;;16.11;47.17;155353.38;1715372;82;21251;-73
2021/01/29 08:20:54;;;;;;;18.77;9.50;;;;;;;16.37;47.23;155423.25;1737898;82;21137;-73
2021/01/29 08:23:59;;;;;;;21.35;11.25;;;;;;;16.52;47.10;155464.08;1744609;82;21229;-73
2021/01/29 08:27:10;;;;;;;19.77;11.00;;;;;;;16.45;47.40;155445.66;1724698;82;21237;-73
2021/01/29 08:29:58;;;;;;;19.63;10.40;;;;;;;16.37;48.31;155423.25;1690247;82;21356;-73
2021/01/29 08:32:58;;;;;;;17.40;10.60;;;;;;;16.68;47.34;155504.92;1713103;83;21332;-72
2021/01/29 08:35:38;;;;;;;22.17;10.68;;;;;;;16.73;47.81;155518.13;1716666;83;21348;-73
2021/01/29 08:38:17;;;;;;;21.93;11.03;;;;;;;16.87;47.20;155556.34;1716201;83;21351;-72
2021/01/29 08:41:22;;;;;;;20.45;10.45;;;;;;;16.97;47.08;155582.70;1733529;81;21506;-73
2021/01/29 08:44:48;;;;;;;21.15;11.08;;;;;;;16.92;47.25;155568.20;1754104;82;21343;-72
2021/01/29 08:47:56;;;;;;;21.05;10.55;;;;;;;17.04;47.31;155599.84;1754113;81;21387;-73
2021/01/29 08:50:33;;;;;;;21.95;11.43;;;;;;;16.93;47.58;155572.19;1751848;82;21339;-74
2021/01/29 08:53:30;;;;;;;21.35;11.22;;;;;;;17.04;47.48;155601.19;1754156;82;21193;-73
2021/01/29 08:56:25;;;;;;;19.48;10.28;;;;;;;17.03;47.70;155597.20;1751675;82;21351;-74
2021/01/29 08:59:04;;;;;;;22.13;10.53;;;;;;;17.10;47.56;155616.98;1691507;85;21284;-74
2021/01/29 09:02:32;;;;;;;19.00;9.48;;;;;;;17.23;47.46;155652.62;1720763;83;21376;-73
2021/01/29 09:05:15;;;;;;;17.67;10.32;;;;;;;17.36;47.48;155685.62;1699977;84;21288;-73
2021/01/29 09:07:48;;;;;;;20.32;11.08;;;;;;;17.43;47.44;155704.06;1690136;84;21229;-73
2021/01/29 09:11:02;;;;;;;17.75;10.48;;;;;;;17.47;47.92;155715.97;1646348;86;21403;-74
2021/01/29 09:13:35;;;;;;;19.12;9.48;;;;;;;17.43;47.53;155705.41;1674203;86;21339;-73
2021/01/29 09:16:11;;;;;;;15.50;9.28;;;;;;;17.34;47.72;155680.33;1688227;84;21343;-73
2021/01/29 09:19:13;;;;;;;19.75;10.68;;;;;;;17.31;47.85;155673.75;1683685;84;21367;-73
2021/01/29 09:22:19;;;;;;;16.40;9.73;;;;;;;17.40;47.80;155697.47;1703439;84;21225;-73
2021/01/29 09:25:06;;;;;;;18.25;10.50;;;;;;;17.27;48.13;155663.14;1687750;84;21360;-73
2021/01/29 09:27:51;;;;;;;18.75;10.78;;;;;;;17.35;48.00;155684.31;1703128;84;21206;-73
2021/01/29 09:30:34;;;;;;;18.70;10.88;;;;;;;17.21;48.17;155645.98;1700855;84;22474;-74
2021/01/29 09:33:39;;;;;;;19.73;10.43;;;;;;;17.29;48.30;155667.17;1703045;84;21542;-74
2021/01/29 09:36:28;;;;;;;16.20;9.85;;;;;;;17.36;48.23;155685.62;1692890;84;21834;-73
2021/01/29 09:39:10;;;;;;;17.60;10.05;;;;;;;17.48;48.23;155718.56;1674224;86;21724;-73
2021/01/29 09:41:59;;;;;;;20.75;10.53;;;;;;;17.86;47.98;155817.53;1670246;84;21406;-73
2021/01/29 09:44:53;;;;;;;17.52;10.85;;;;;;;17.87;48.00;155821.47;1680925;85;21256;-73
2021/01/29 09:47:26;;;;;;;17.42;9.95;;;;;;;17.82;47.92;155806.97;1728035;81;21157;-73
2021/01/29 09:50:05;;;;;;;20.80;10.82;;;;;;;17.86;48.12;155818.83;1746187;82;21811;-73
2021/01/29 09:53:07;;;;;;;18.62;10.30;;;;;;;17.95;48.09;155842.56;1746092;81;22251;-73
2021/01/29 09:55:56;;;;;;;19.77;10.55;;;;;;;17.99;48.16;155851.84;1744556;82;21193;-73
2021/01/29 09:59:05;;;;;;;20.00;10.68;;;;;;;18.43;47.42;155970.66;1712820;84;21252;-73
2021/01/29 10:01:40;;;;;;;17.87;10.20;;;;;;;18.45;47.54;155975.95;1712690;84;21246;-74
2021/01/29 10:04:29;;;;;;;18.45;10.95;;;;;;;18.17;48.08;155901.97;1712712;84;21209;-74
2021/01/29 10:07:08;;;;;;;18.75;11.30;;;;;;;18.12;48.24;155888.75;1713690;82;21225;-74
2021/01/29 10:09:43;;;;;;;21.87;10.60;;;;;;;18.31;48.20;155938.98;1734763;82;21158;-74
2021/01/29 10:12:26;;;;;;;19.73;10.50;;;;;;;18.27;48.25;155927.11;1712657;84;21788;-73
2021/01/29 10:15:15;;;;;;;16.90;10.68;;;;;;;18.28;48.38;155929.75;1712769;84;21716;-72
2021/01/29 10:18:06;;;;;;;18.85;11.10;;;;;;;18.39;48.69;155958.78;1713037;84;21202;-72
2021/01/29 10:20:39;;;;;;;19.07;10.15;;;;;;;19.25;47.11;156187.27;1735285;81;21162;-72
2021/01/29 10:23:27;;;;;;;18.30;10.00;;;;;;;18.38;48.63;155956.16;1745921;82;21380;-72
2021/01/29 10:26:23;;;;;;;19.57;10.58;;;;;;;18.31;48.75;155938.98;1715189;82;21333;-72
2021/01/29 10:29:25;;;;;;;19.23;10.05;;;;;;;18.37;48.66;155953.50;1746221;82;21209;-73
2021/01/29 10:32:19;;;;;;;18.27;10.93;;;;;;;18.70;48.70;156040.63;1698957;84;21194;-72
2021/01/29 10:35:04;;;;;;;17.73;9.68;;;;;;;18.89;48.30;156092.12;1698502;84;21223;-75
2021/01/29 10:38:15;;;;;;;16.55;9.78;;;;;;;18.86;48.48;156082.89;1706289;82;21218;-73
2021/01/29 10:41:10;;;;;;;20.37;10.63;;;;;;;18.93;48.31;156101.36;1712599;84;21249;-74
2021/01/29 10:43:46;;;;;;;17.30;9.90;;;;;;;19.25;48.56;156187.27;1674684;83;21241;-74
2021/01/29 10:46:44;;;;;;;21.10;10.60;;;;;;;19.33;48.51;156209.69;1712621;84;21232;-72
2021/01/29 10:49:57;;;;;;;18.30;11.00;;;;;;;19.49;48.47;156251.98;1694908;84;21866;-73
2021/01/29 10:53:02;;;;;;;20.68;10.85;;;;;;;19.49;48.13;156251.98;1695088;84;21280;-71
2021/01/29 10:55:38;;;;;;;16.85;10.25;;;;;;;19.34;48.35;156212.33;1703654;82;21332;-71
2021/01/29 10:58:23;;;;;;;18.45;10.68;;;;;;;19.41;48.27;156229.50;1746154;82;21185;-72
2021/01/29 11:01:02;;;;;;;18.90;9.93;;;;;;;19.48;48.73;156248.03;1715647;82;21324;-72
2021/01/29 11:04:04;;;;;;;16.07;8.33;;;;;;;19.82;48.53;156337.87;1737943;82;21729;-72
2021/01/29 11:06:44;;;;;;;15.78;8.75;;;;;;;19.54;48.38;156263.88;1724767;82;21747;-73
2021/01/29 11:09:24;;;;;;;13.83;8.98;;;;;;;19.52;48.02;156259.92;1735293;82;21344;-72
2021/01/29 11:12:02;;;;;;;12.95;7.72;;;;;;;19.29;48.25;156197.81;1746211;82;21256;-72
2021/01/29 11:14:53;;;;;;;15.00;7.35;;;;;;;19.19;48.25;156171.39;1746513;82;21359;-75
2021/01/29 11:17:45;;;;;;;15.23;8.63;;;;;;;19.10;48.08;156147.58;1745925;82;21209;-74
2021/01/29 11:20:22;;;;;;;16.67;7.78;;;;;;;18.98;48.29;156114.58;1713962;82;21226;-75
2021/01/29 11:23:05;;;;;;;13.83;7.85;;;;;;;18.92;48.34;156100.06;1683013;84;21992;-73
2021/01/29 11:25:57;;;;;;;13.50;7.12;;;;;;;18.66;48.21;156030.03;1727749;82;21220;-73
2021/01/29 11:28:45;;;;;;;13.15;7.42;;;;;;;18.65;48.17;156027.39;1745451;82;21720;-73
2021/01/29 11:31:45;;;;;;;14.50;7.70;;;;;;;18.63;48.00;156022.16;1745975;82;21249;-73
2021/01/29 11:34:30;;;;;;;15.53;7.35;;;;;;;18.55;47.81;156002.34;1746076;82;21323;-73
2021/01/29 11:37:11;;;;;;;14.95;6.40;;;;;;;18.43;47.57;155969.31;1714362;82;21191;-72
2021/01/29 11:40:09;;;;;;;16.20;7.85;;;;;;;18.48;47.10;155983.83;1666692;86;21218;-73
2021/01/29 11:42:55;;;;;;;17.25;7.30;;;;;;;18.20;47.21;155908.55;1651864;86;21257;-73
2021/01/29 11:45:30;;;;;;;13.08;6.92;;;;;;;18.39;46.78;155960.08;1669664;82;21221;-72
2021/01/29 11:48:17;;;;;;;12.28;6.87;;;;;;;18.11;47.00;155884.81;1712822;84;21182;-72
2021/01/29 11:51:05;;;;;;;14.53;7.08;;;;;;;18.07;47.08;155874.23;1712900;84;21201;-71
2021/01/29 11:54:04;;;;;;;13.32;7.00;;;;;;;18.17;46.86;155901.97;1712923;84;21257;-72
2021/01/29 11:56:57;;;;;;;13.62;6.25;;;;;;;19.80;45.31;156333.89;1712864;84;21246;-71
2021/01/29 11:59:58;;;;;;;12.60;6.00;;;;;;;18.22;46.83;155915.25;1746006;82;21192;-71
2021/01/29 12:03:03;;;;;;;13.68;7.22;;;;;;;18.12;47.22;155887.45;1745936;82;21169;-71
2021/01/29 12:05:53;;;;;;;12.23;6.72;;;;;;;18.27;47.82;155927.11;1733590;82;21237;-72
2021/01/29 12:08:49;;;;;;;13.03;7.08;;;;;;;18.40;47.51;155961.44;1737220;82;21260;-72
2021/01/29 12:11:42;;;;;;;13.08;7.50;;;;;;;18.38;47.21;155957.44;1745898;81;21173;-71
2021/01/29 12:14:32;;;;;;;7.97;4.90;;;;;;;18.24;47.36;155920.48;1745810;81;21212;-71
2021/01/29 12:17:06;;;;;;;16.10;8.53;;;;;;;18.54;47.32;155999.70;1745639;82;21241;-73
2021/01/29 12:19:44;;;;;;;13.03;6.78;;;;;;;20.51;44.59;156521.66;1716531;83;21411;-72
2021/01/29 12:22:45;;;;;;;15.50;7.60;;;;;;;18.61;47.16;156016.88;1716263;83;21379;-71
2021/01/29 12:25:43;;;;;;;12.75;5.97;;;;;;;18.16;48.03;155898.03;1715727;82;21284;-71
2021/01/29 12:28:38;;;;;;;10.85;6.15;;;;;;;18.10;48.16;155882.17;1666684;86;21202;-71
2021/01/29 12:31:29;;;;;;;12.95;6.58;;;;;;;18.33;48.01;155942.92;1652205;87;21724;-71
2021/01/29 12:34:22;;;;;;;12.37;6.85;;;;;;;18.12;48.08;155887.45;1715664;82;21234;-71
2021/01/29 12:37:11;;;;;;;10.90;5.80;;;;;;;18.07;48.13;155872.94;1736624;82;21197;-71
2021/01/29 12:39:56;;;;;;;18.12;8.18;;;;;;;18.33;48.45;155942.92;1745769;81;21237;-71
2021/01/29 12:42:32;;;;;;;15.93;7.10;;;;;;;18.73;48.47;156048.56;1725893;82;21677;-71
2021/01/29 12:45:09;;;;;;;13.90;7.10;;;;;;;18.96;48.46;156110.59;1664764;84;21736;-71
2021/01/29 12:47:54;;;;;;;14.18;6.67;;;;;;;;;;1717571;83;21318;-72
2021/01/29 12:50:41;;;;;;;12.80;6.58;;;;;;;19.07;48.73;156139.64;1717081;82;21233;-71
2021/01/29 12:53:46;;;;;;;11.78;6.40;;;;;;;19.25;48.44;156187.27;1666510;84;21269;-71
2021/01/29 12:56:38;;;;;;;14.65;7.62;;;;;;;19.29;48.47;156197.81;1679087;83;21233;-71
2021/01/29 12:59:11;;;;;;;12.70;5.83;;;;;;;19.36;48.52;156216.33;1700754;82;21182;-71
2021/01/29 13:01:56;;;;;;;12.20;6.65;;;;;;;19.37;48.43;156220.27;1667734;85;21340;-71
2021/01/29 13:04:52;;;;;;;11.57;6.22;;;;;;;19.47;48.48;156245.39;1736846;82;21213;-71
2021/01/29 13:07:30;;;;;;;11.55;6.22;;;;;;;19.49;48.33;156250.69;1733397;82;21335;-71
2021/01/29 13:10:29;;;;;;;14.10;7.33;;;;;;;19.33;48.54;156209.69;1706135;82;21363;-70